createdAt,value
2018-05-14T00:00:20.586Z,10.40
2018-05-14T00:02:48.141Z,10.40
2018-05-14T00:05:16.195Z,10.50
2018-05-14T00:07:43.750Z,10.40
2018-05-14T00:10:11.305Z,10.40
2018-05-14T00:12:38.825Z,10.30
2018-05-14T00:15:06.367Z,10.40
2018-05-14T00:17:33.884Z,10.30
2018-05-14T00:20:01.437Z,10.30
2018-05-14T00:22:29.929Z,10.30
2018-05-14T00:24:57.473Z,10.30
2018-05-14T00:27:25.099Z,10.20
2018-05-14T00:29:52.659Z,10.30
2018-05-14T00:32:20.204Z,10.30
2018-05-14T00:34:47.725Z,10.30
2018-05-14T00:37:15.272Z,10.40
2018-05-14T00:39:42.793Z,10.30
2018-05-14T00:42:12.288Z,10.20
2018-05-14T00:44:39.805Z,10.40
2018-05-14T00:47:07.365Z,10.40
2018-05-14T00:49:35.663Z,10.70
2018-05-14T00:52:03.184Z,10.70
2018-05-14T00:54:30.736Z,10.70
2018-05-14T00:56:58.256Z,10.60
2018-05-14T00:59:25.798Z,10.70
2018-05-14T01:01:54.088Z,10.40
2018-05-14T01:04:21.644Z,10.40
2018-05-14T01:06:49.157Z,10.30
2018-05-14T01:09:16.708Z,10.20
2018-05-14T01:11:44.229Z,10.20
2018-05-14T01:14:14.604Z,10.30
2018-05-14T01:16:43.105Z,10.40
2018-05-14T01:19:10.636Z,10.40
2018-05-14T01:21:38.216Z,10.40
2018-05-14T01:24:05.736Z,10.30
2018-05-14T01:26:33.288Z,10.20
2018-05-14T01:29:00.810Z,10.20
2018-05-14T01:31:29.101Z,10.30
2018-05-14T01:33:56.652Z,10.30
2018-05-14T01:36:24.170Z,10.30
2018-05-14T01:38:51.720Z,10.20
2018-05-14T01:41:20.217Z,10.20
2018-05-14T01:43:47.770Z,10.20
2018-05-14T01:46:16.089Z,10.20
2018-05-14T01:48:43.633Z,10.20
2018-05-14T01:51:11.160Z,10.10
2018-05-14T01:53:38.689Z,10.10
2018-05-14T01:56:06.245Z,10.10
2018-05-14T01:58:33.764Z,10.10
2018-05-14T02:01:02.077Z,10.10
2018-05-14T02:03:30.575Z,10.10
2018-05-14T02:05:59.059Z,10.00
2018-05-14T02:08:26.608Z,10.00
2018-05-14T02:10:56.104Z,10.10
2018-05-14T02:13:23.653Z,10.10
2018-05-14T02:15:51.335Z,10.10
2018-05-14T02:18:20.830Z,10.00
2018-05-14T02:20:48.352Z,10.00
2018-05-14T02:23:16.664Z,10.10
2018-05-14T02:25:44.186Z,10.10
2018-05-14T02:28:13.432Z,10.10
2018-05-14T02:30:41.951Z,10.10
2018-05-14T02:33:09.664Z,10.20
2018-05-14T02:35:37.211Z,10.20
2018-05-14T02:38:04.728Z,10.30
2018-05-14T02:40:32.286Z,10.30
2018-05-14T02:42:59.818Z,10.20
2018-05-14T02:45:27.372Z,10.20
2018-05-14T02:47:54.954Z,10.30
2018-05-14T02:50:22.484Z,10.30
2018-05-14T02:52:50.027Z,10.50
2018-05-14T02:55:18.525Z,10.50
2018-05-14T02:57:46.073Z,10.50
2018-05-14T03:00:14.516Z,10.50
2018-05-14T03:02:42.050Z,10.50
2018-05-14T03:05:09.622Z,10.50
2018-05-14T03:07:37.144Z,10.40
2018-05-14T03:10:04.692Z,10.40
2018-05-14T03:12:32.212Z,10.30
2018-05-14T03:15:00.532Z,10.10
2018-05-14T03:17:28.116Z,10.10
2018-05-14T03:19:55.664Z,10.20
2018-05-14T03:22:23.193Z,10.10
2018-05-14T03:24:50.713Z,10.10
2018-05-14T03:27:18.332Z,10.10
2018-05-14T03:29:45.830Z,10.00
2018-05-14T03:32:15.332Z,9.90
2018-05-14T03:34:42.880Z,10.00
2018-05-14T03:37:10.411Z,10.00
2018-05-14T03:39:37.960Z,9.90
2018-05-14T03:42:05.519Z,9.90
2018-05-14T03:44:33.041Z,9.90
2018-05-14T03:47:01.354Z,10.00
2018-05-14T03:49:28.904Z,10.00
2018-05-14T03:51:56.425Z,10.10
2018-05-14T03:54:23.985Z,10.10
2018-05-14T03:56:51.536Z,10.20
2018-05-14T03:59:30.898Z,10.20
2018-05-14T04:02:21.100Z,10.30
2018-05-14T04:05:00.327Z,10.40
2018-05-14T04:07:28.837Z,10.40
2018-05-14T04:09:56.397Z,10.40
2018-05-14T04:12:23.921Z,10.40
2018-05-14T04:14:52.205Z,10.40
2018-05-14T04:17:19.755Z,10.40
2018-05-14T04:19:47.272Z,10.30
2018-05-14T04:22:14.824Z,10.40
2018-05-14T04:24:42.354Z,10.40
2018-05-14T04:27:09.913Z,10.40
2018-05-14T04:29:37.451Z,10.30
2018-05-14T04:32:05.033Z,10.30
2018-05-14T04:34:32.580Z,10.20
2018-05-14T04:37:00.096Z,10.10
2018-05-14T04:39:27.645Z,10.20
2018-05-14T04:41:55.167Z,10.30
2018-05-14T04:44:22.710Z,10.40
2018-05-14T04:46:50.232Z,10.30
2018-05-14T04:49:17.744Z,10.40
2018-05-14T04:51:46.267Z,10.50
2018-05-14T04:54:13.813Z,10.50
2018-05-14T04:56:41.375Z,10.50
2018-05-14T04:59:08.984Z,10.50
2018-05-14T05:01:36.486Z,10.50
2018-05-14T05:04:04.032Z,10.60
2018-05-14T05:06:31.577Z,10.60
2018-05-14T05:09:01.109Z,10.50
2018-05-14T05:11:28.693Z,10.80
2018-05-14T05:13:56.243Z,10.80
2018-05-14T05:16:24.548Z,10.80
2018-05-14T05:18:52.103Z,10.80
2018-05-14T05:21:20.401Z,11.00
2018-05-14T05:23:47.949Z,11.00
2018-05-14T05:26:15.480Z,11.10
2018-05-14T05:28:43.001Z,11.10
2018-05-14T05:31:10.590Z,11.20
2018-05-14T05:33:38.117Z,11.30
2018-05-14T05:36:06.274Z,11.30
2018-05-14T05:38:33.789Z,11.40
2018-05-14T05:41:01.344Z,11.40
2018-05-14T05:43:28.929Z,11.40
2018-05-14T05:45:56.462Z,11.40
2018-05-14T05:48:24.012Z,11.40
2018-05-14T05:50:51.539Z,11.30
2018-05-14T05:53:19.086Z,11.30
2018-05-14T05:55:46.605Z,11.30
2018-05-14T05:58:14.138Z,11.40
2018-05-14T06:00:41.758Z,11.40
2018-05-14T06:03:10.241Z,11.20
2018-05-14T06:05:37.794Z,11.20
2018-05-14T06:08:05.313Z,11.30
2018-05-14T06:10:33.872Z,11.40
2018-05-14T06:13:01.423Z,11.40
2018-05-14T06:15:29.023Z,11.40
2018-05-14T06:17:56.576Z,11.50
2018-05-14T06:20:24.103Z,11.40
2018-05-14T06:22:51.661Z,11.40
2018-05-14T06:25:19.201Z,11.50
2018-05-14T06:27:46.769Z,11.70
2018-05-14T06:30:14.516Z,11.70
2018-05-14T06:32:43.008Z,11.60
2018-05-14T06:35:10.553Z,11.80
2018-05-14T06:37:38.068Z,11.90
2018-05-14T06:40:05.621Z,11.90
2018-05-14T06:42:33.179Z,11.90
2018-05-14T06:45:00.747Z,11.80
2018-05-14T06:47:28.265Z,11.90
2018-05-14T06:49:55.849Z,12.00
2018-05-14T06:52:23.357Z,12.00
2018-05-14T06:54:50.901Z,12.10
2018-05-14T06:57:20.217Z,12.20
2018-05-14T06:59:47.784Z,12.20
2018-05-14T07:02:16.289Z,12.40
2018-05-14T07:04:43.841Z,12.40
2018-05-14T07:07:11.387Z,12.50
2018-05-14T07:09:38.916Z,12.40
2018-05-14T07:12:06.489Z,12.50
2018-05-14T07:14:34.010Z,12.60
2018-05-14T07:17:01.590Z,12.70
2018-05-14T07:19:29.139Z,12.80
2018-05-14T07:21:56.728Z,12.90
2018-05-14T07:24:25.048Z,13.00
2018-05-14T07:26:52.582Z,13.00
2018-05-14T07:29:20.344Z,13.00
2018-05-14T07:31:47.689Z,13.00
2018-05-14T07:34:15.229Z,13.00
2018-05-14T07:36:43.547Z,12.90
2018-05-14T07:39:11.200Z,12.80
2018-05-14T07:41:38.749Z,12.80
2018-05-14T07:44:06.266Z,12.80
2018-05-14T07:46:33.848Z,12.70
2018-05-14T07:49:02.130Z,12.80
2018-05-14T07:51:30.416Z,12.90
2018-05-14T07:53:59.896Z,12.80
2018-05-14T07:56:27.452Z,12.80
2018-05-14T07:58:55.005Z,12.30
2018-05-14T08:01:22.527Z,12.00
2018-05-14T08:03:50.069Z,12.10
2018-05-14T08:06:17.593Z,12.10
2018-05-14T08:08:45.905Z,12.20
2018-05-14T08:11:13.464Z,12.20
2018-05-14T08:13:41.008Z,12.10
2018-05-14T08:16:08.524Z,12.00
2018-05-14T08:18:36.080Z,12.00
2018-05-14T08:21:04.392Z,12.50
2018-05-14T08:23:31.955Z,12.50
2018-05-14T08:25:59.524Z,12.50
2018-05-14T08:28:27.076Z,12.30
2018-05-14T08:30:55.525Z,12.50
2018-05-14T08:33:23.053Z,12.60
2018-05-14T08:35:50.603Z,12.70
2018-05-14T08:38:18.134Z,12.50
2018-05-14T08:40:45.691Z,12.40
2018-05-14T08:43:13.231Z,12.50
2018-05-14T08:45:41.522Z,12.80
2018-05-14T08:48:09.066Z,12.80
2018-05-14T08:50:39.345Z,13.00
2018-05-14T08:53:06.864Z,13.00
2018-05-14T08:55:34.430Z,13.10
2018-05-14T08:58:01.977Z,13.20
2018-05-14T09:00:29.497Z,13.30
2018-05-14T09:02:57.061Z,13.30
2018-05-14T09:05:24.590Z,13.30
2018-05-14T09:07:52.141Z,13.30
2018-05-14T09:10:20.720Z,13.20
2018-05-14T09:12:50.275Z,13.30
2018-05-14T09:15:18.568Z,13.20
2018-05-14T09:17:46.108Z,13.20
2018-05-14T09:20:13.656Z,13.10
2018-05-14T09:22:41.191Z,13.10
2018-05-14T09:25:08.750Z,13.00
2018-05-14T09:27:37.292Z,12.80
2018-05-14T09:30:06.874Z,12.70
2018-05-14T09:32:35.176Z,12.70
2018-05-14T09:35:03.509Z,12.90
2018-05-14T09:37:31.066Z,12.90
2018-05-14T09:39:58.597Z,13.00
2018-05-14T09:42:26.143Z,13.00
2018-05-14T09:44:53.661Z,13.00
2018-05-14T09:47:21.193Z,13.30
2018-05-14T09:49:48.773Z,13.40
2018-05-14T09:52:16.345Z,13.40
2018-05-14T09:54:43.896Z,13.60
2018-05-14T09:57:11.539Z,13.50
2018-05-14T09:59:39.781Z,13.70
2018-05-14T10:02:07.301Z,13.70
2018-05-14T10:04:34.856Z,13.90
2018-05-14T10:07:02.413Z,13.90
2018-05-14T10:09:30.729Z,14.00
2018-05-14T10:11:58.250Z,14.00
2018-05-14T10:14:25.783Z,14.00
2018-05-14T10:16:54.276Z,14.10
2018-05-14T10:19:21.801Z,14.20
2018-05-14T10:21:49.362Z,14.20
2018-05-14T10:24:16.909Z,14.30
2018-05-14T10:26:44.463Z,14.20
2018-05-14T10:29:12.033Z,14.20
2018-05-14T10:31:41.527Z,14.20
2018-05-14T10:34:09.822Z,14.30
2018-05-14T10:36:37.375Z,14.20
2018-05-14T10:39:05.855Z,14.10
2018-05-14T10:41:33.384Z,13.90
2018-05-14T10:44:00.972Z,13.70
2018-05-14T10:46:28.525Z,14.00
2018-05-14T10:48:56.044Z,14.10
2018-05-14T10:51:24.366Z,14.30
2018-05-14T10:53:51.928Z,14.20
2018-05-14T10:56:19.453Z,14.30
2018-05-14T10:58:47.772Z,13.90
2018-05-14T11:01:15.296Z,13.80
2018-05-14T11:03:43.613Z,13.90
2018-05-14T11:06:11.136Z,13.90
2018-05-14T11:08:38.666Z,14.30
2018-05-14T11:11:06.991Z,14.20
2018-05-14T11:13:34.513Z,14.20
2018-05-14T11:16:02.068Z,14.40
2018-05-14T11:18:29.601Z,14.20
2018-05-14T11:20:58.113Z,14.10
2018-05-14T11:23:26.408Z,14.40
2018-05-14T11:25:53.957Z,14.40
2018-05-14T11:28:24.244Z,14.30
2018-05-14T11:30:51.782Z,14.30
2018-05-14T11:33:19.937Z,14.30
2018-05-14T11:35:48.289Z,14.20
2018-05-14T11:38:16.630Z,14.30
2018-05-14T11:40:44.199Z,14.30
2018-05-14T11:43:13.700Z,14.20
2018-05-14T11:45:41.224Z,14.20
2018-05-14T11:48:08.748Z,14.10
2018-05-14T11:50:36.297Z,14.10
2018-05-14T11:53:04.585Z,14.70
2018-05-14T11:55:32.141Z,14.70
2018-05-14T11:57:59.693Z,14.90
2018-05-14T12:00:27.989Z,14.70
2018-05-14T12:02:55.631Z,14.70
2018-05-14T12:05:23.138Z,14.70
2018-05-14T12:07:50.657Z,14.50
2018-05-14T12:10:18.976Z,14.70
2018-05-14T12:12:46.528Z,14.60
2018-05-14T12:15:14.865Z,14.70
2018-05-14T12:17:43.177Z,15.00
2018-05-14T12:20:10.952Z,14.90
2018-05-14T12:22:38.509Z,15.00
2018-05-14T12:25:06.044Z,14.90
2018-05-14T12:27:33.591Z,15.10
2018-05-14T12:30:01.113Z,15.10
2018-05-14T12:32:28.671Z,15.00
2018-05-14T12:34:56.225Z,14.70
2018-05-14T12:37:23.749Z,14.50
2018-05-14T12:39:51.385Z,14.40
2018-05-14T12:42:18.929Z,14.40
2018-05-14T12:44:46.443Z,14.50
2018-05-14T12:47:13.992Z,14.60
2018-05-14T12:49:43.492Z,14.60
2018-05-14T12:52:11.033Z,14.60
2018-05-14T12:54:38.591Z,14.40
2018-05-14T12:57:06.150Z,14.30
2018-05-14T12:59:33.715Z,14.50
2018-05-14T13:02:01.245Z,14.30
2018-05-14T13:04:28.766Z,14.30
2018-05-14T13:06:56.372Z,14.40
2018-05-14T13:09:23.868Z,14.50
2018-05-14T13:11:51.418Z,14.30
2018-05-14T13:14:19.932Z,14.40
2018-05-14T13:16:47.459Z,14.50
2018-05-14T13:19:15.085Z,14.60
2018-05-14T13:21:42.639Z,14.60
2018-05-14T13:24:12.782Z,14.70
2018-05-14T13:26:40.340Z,14.60
2018-05-14T13:29:07.907Z,14.70
2018-05-14T13:31:35.464Z,14.70
2018-05-14T13:34:04.005Z,14.60
2018-05-14T13:36:32.348Z,14.10
2018-05-14T13:38:59.901Z,14.10
2018-05-14T13:41:27.428Z,13.80
2018-05-14T13:43:54.976Z,13.80
2018-05-14T13:46:23.261Z,13.90
2018-05-14T13:48:50.876Z,13.90
2018-05-14T13:51:19.325Z,14.00
2018-05-14T13:53:46.961Z,14.20
2018-05-14T13:56:15.277Z,14.40
2018-05-14T13:58:42.800Z,14.30
2018-05-14T14:01:10.382Z,14.40
2018-05-14T14:03:37.917Z,14.10
2018-05-14T14:06:06.233Z,14.40
2018-05-14T14:08:33.760Z,14.40
2018-05-14T14:11:01.312Z,14.50
2018-05-14T14:13:30.573Z,14.70
2018-05-14T14:15:58.297Z,14.60
2018-05-14T14:18:25.873Z,14.70
2018-05-14T14:20:53.416Z,14.60
2018-05-14T14:23:23.120Z,14.30
2018-05-14T14:25:50.501Z,14.40
2018-05-14T14:28:18.050Z,14.60
2018-05-14T14:30:46.641Z,14.30
2018-05-14T14:33:14.185Z,14.00
2018-05-14T14:35:41.721Z,13.90
2018-05-14T14:38:09.245Z,13.90
2018-05-14T14:40:36.805Z,13.70
2018-05-14T14:43:04.332Z,13.70
2018-05-14T14:45:31.892Z,14.00
2018-05-14T14:47:59.427Z,14.20
2018-05-14T14:50:27.452Z,14.10
2018-05-14T14:52:55.000Z,13.80
2018-05-14T14:55:22.549Z,13.70
2018-05-14T14:57:51.082Z,13.50
2018-05-14T15:00:18.626Z,13.60
2018-05-14T15:02:46.939Z,13.70
2018-05-14T15:05:15.415Z,13.70
2018-05-14T15:07:44.439Z,13.70
2018-05-14T15:10:13.920Z,13.50
2018-05-14T15:12:41.471Z,13.30
2018-05-14T15:15:09.041Z,13.30
2018-05-14T15:17:36.585Z,13.50
2018-05-14T15:20:04.159Z,13.70
2018-05-14T15:22:31.700Z,13.70
2018-05-14T15:24:59.249Z,13.60
2018-05-14T15:27:26.817Z,13.60
2018-05-14T15:29:55.312Z,13.40
2018-05-14T15:32:22.874Z,13.40
2018-05-14T15:34:50.408Z,13.60
2018-05-14T15:37:17.976Z,13.70
2018-05-14T15:39:46.466Z,13.70
2018-05-14T15:42:13.993Z,13.90
2018-05-14T15:44:42.310Z,13.80
2018-05-14T15:47:09.889Z,13.90
2018-05-14T15:49:37.508Z,14.00
2018-05-14T15:52:05.059Z,14.20
2018-05-14T15:54:32.628Z,14.10
2018-05-14T15:57:00.162Z,14.00
2018-05-14T15:59:27.720Z,13.80
2018-05-14T16:01:56.296Z,13.90
2018-05-14T16:04:23.753Z,14.00
2018-05-14T16:06:51.313Z,13.90
2018-05-14T16:09:21.295Z,14.20
2018-05-14T16:11:50.749Z,14.10
2018-05-14T16:14:20.007Z,14.00
2018-05-14T16:16:47.589Z,13.90
2018-05-14T16:19:15.872Z,14.00
2018-05-14T16:21:44.291Z,14.00
2018-05-14T16:24:11.817Z,13.90
2018-05-14T16:26:39.374Z,13.80
2018-05-14T16:29:06.920Z,13.80
2018-05-14T16:31:35.208Z,13.90
2018-05-14T16:34:02.763Z,13.90
2018-05-14T16:36:30.298Z,13.80
2018-05-14T16:38:57.853Z,13.80
2018-05-14T16:41:25.401Z,13.60
2018-05-14T16:43:53.889Z,13.50
2018-05-14T16:46:21.460Z,13.50
2018-05-14T16:48:49.026Z,13.60
2018-05-14T16:51:17.524Z,13.70
2018-05-14T16:53:46.083Z,13.70
2018-05-14T16:56:14.671Z,13.70
2018-05-14T16:58:42.246Z,13.80
2018-05-14T17:01:10.560Z,13.40
2018-05-14T17:03:38.114Z,13.40
2018-05-14T17:06:05.648Z,13.30
2018-05-14T17:08:34.005Z,13.20
2018-05-14T17:11:01.574Z,13.20
2018-05-14T17:13:29.898Z,13.20
2018-05-14T17:15:57.445Z,13.20
2018-05-14T17:18:24.969Z,13.20
2018-05-14T17:20:52.520Z,13.20
2018-05-14T17:23:20.054Z,13.30
2018-05-14T17:25:47.616Z,13.30
2018-05-14T17:28:15.172Z,13.30
2018-05-14T17:30:42.710Z,13.30
2018-05-14T17:33:10.263Z,13.10
2018-05-14T17:35:37.817Z,12.90
2018-05-14T17:38:05.390Z,12.90
2018-05-14T17:40:32.957Z,13.00
2018-05-14T17:43:00.521Z,13.00
2018-05-14T17:45:28.047Z,13.00
2018-05-14T17:47:55.597Z,13.00
2018-05-14T17:50:23.919Z,13.00
2018-05-14T17:52:51.480Z,13.00
2018-05-14T17:55:21.012Z,13.10
2018-05-14T17:57:49.329Z,13.10
2018-05-14T18:00:16.860Z,13.10
2018-05-14T18:02:44.464Z,13.10
2018-05-14T18:05:12.063Z,13.20
2018-05-14T18:07:39.624Z,13.10
2018-05-14T18:10:07.158Z,13.10
2018-05-14T18:12:34.712Z,13.10
2018-05-14T18:15:02.239Z,13.20
2018-05-14T18:17:29.877Z,13.20
2018-05-14T18:20:02.906Z,13.10
2018-05-14T18:22:31.387Z,13.10
2018-05-14T18:25:04.499Z,12.90
2018-05-14T18:27:32.059Z,13.10
2018-05-14T18:30:05.125Z,13.20
2018-05-14T18:32:32.697Z,13.20
2018-05-14T18:35:05.753Z,13.10
2018-05-14T18:37:33.305Z,13.10
2018-05-14T18:40:00.865Z,13.10
2018-05-14T18:42:28.407Z,13.20
2018-05-14T18:44:58.653Z,13.20
2018-05-14T18:47:26.202Z,13.20
2018-05-14T18:49:53.773Z,13.10
2018-05-14T18:52:21.316Z,13.10
2018-05-14T18:54:48.841Z,13.20
2018-05-14T18:57:17.400Z,13.20
2018-05-14T18:59:44.932Z,13.20
2018-05-14T19:02:12.488Z,13.10
2018-05-14T19:04:40.964Z,13.00
2018-05-14T19:07:08.521Z,12.90
2018-05-14T19:09:36.078Z,12.90
2018-05-14T19:12:04.417Z,12.60
2018-05-14T19:14:31.950Z,12.60
2018-05-14T19:17:05.071Z,12.50
2018-05-14T19:19:32.601Z,12.60
2018-05-14T19:22:00.137Z,12.70
2018-05-14T19:24:27.708Z,12.80
2018-05-14T19:26:55.344Z,12.80
2018-05-14T19:29:28.603Z,12.80
2018-05-14T19:31:56.220Z,12.80
2018-05-14T19:34:29.510Z,12.80
2018-05-14T19:36:57.048Z,12.90
2018-05-14T19:39:30.288Z,12.80
2018-05-14T19:41:57.837Z,12.80
2018-05-14T19:44:25.482Z,12.70
2018-05-14T19:46:53.034Z,12.80
2018-05-14T19:49:20.615Z,12.90
2018-05-14T19:51:48.142Z,12.90
2018-05-14T19:54:16.673Z,13.00
2018-05-14T19:56:44.214Z,13.10
2018-05-14T19:59:11.745Z,13.00
2018-05-14T20:01:39.311Z,13.00
2018-05-14T20:04:06.839Z,13.10
2018-05-14T20:06:35.137Z,13.00
2018-05-14T20:09:02.697Z,13.00
2018-05-14T20:11:30.237Z,13.00
2018-05-14T20:13:58.754Z,13.00
2018-05-14T20:16:26.379Z,13.00
2018-05-14T20:18:54.702Z,13.10
2018-05-14T20:21:22.228Z,13.10
2018-05-14T20:23:49.785Z,13.10
2018-05-14T20:26:17.313Z,13.10
2018-05-14T20:28:45.602Z,13.10
2018-05-14T20:31:13.152Z,13.10
2018-05-14T20:33:41.446Z,13.20
2018-05-14T20:36:09.013Z,13.20
2018-05-14T20:38:36.533Z,13.10
2018-05-14T20:41:04.069Z,13.10
2018-05-14T20:43:31.640Z,13.20
2018-05-14T20:45:59.232Z,13.30
2018-05-14T20:48:27.565Z,13.20
2018-05-14T20:50:55.125Z,13.10
2018-05-14T20:53:22.690Z,13.10
2018-05-14T20:55:51.163Z,13.10
2018-05-14T20:58:18.735Z,13.20
2018-05-14T21:00:46.264Z,13.20
2018-05-14T21:03:13.784Z,13.10
2018-05-14T21:05:43.298Z,13.10
2018-05-14T21:08:11.606Z,13.20
2018-05-14T21:10:39.204Z,13.10
2018-05-14T21:13:06.736Z,13.20
2018-05-14T21:15:34.345Z,13.10
2018-05-14T21:18:01.855Z,13.10
2018-05-14T21:20:30.358Z,13.10
2018-05-14T21:22:57.897Z,13.10
2018-05-14T21:25:25.476Z,12.90
2018-05-14T21:27:53.054Z,12.90
2018-05-14T21:30:20.582Z,13.00
2018-05-14T21:32:48.182Z,13.10
2018-05-14T21:35:15.705Z,13.10
2018-05-14T21:37:43.322Z,13.10
2018-05-14T21:40:10.853Z,13.00
2018-05-14T21:42:38.402Z,12.90
2018-05-14T21:45:05.958Z,13.00
2018-05-14T21:47:34.445Z,13.00
2018-05-14T21:50:03.931Z,13.10
2018-05-14T21:52:31.740Z,13.10
2018-05-14T21:54:59.213Z,13.20
2018-05-14T21:57:26.745Z,13.10
2018-05-14T21:59:55.061Z,13.20
2018-05-14T22:02:22.709Z,13.10
2018-05-14T22:04:50.310Z,13.10
2018-05-14T22:07:17.883Z,13.10
2018-05-14T22:09:45.440Z,13.10
2018-05-14T22:12:12.965Z,13.20
2018-05-14T22:14:40.512Z,13.20
2018-05-14T22:17:08.065Z,12.90
2018-05-14T22:19:35.588Z,12.90
2018-05-14T22:22:03.916Z,12.70
2018-05-14T22:24:31.486Z,12.70
2018-05-14T22:26:59.004Z,12.60
2018-05-14T22:29:26.552Z,12.60
2018-05-14T22:31:54.857Z,12.70
2018-05-14T22:34:22.424Z,12.70
2018-05-14T22:36:49.957Z,12.60
2018-05-14T22:39:17.514Z,12.70
2018-05-14T22:41:45.076Z,12.60
2018-05-14T22:44:12.632Z,12.70
2018-05-14T22:46:40.933Z,12.70
2018-05-14T22:49:08.462Z,12.70
2018-05-14T22:51:36.802Z,12.70
2018-05-14T22:54:04.349Z,12.70
2018-05-14T22:56:31.937Z,12.80
2018-05-14T22:58:59.477Z,12.80
2018-05-14T23:01:27.005Z,12.80
2018-05-14T23:03:54.533Z,12.80
2018-05-14T23:06:22.888Z,12.70
2018-05-14T23:08:50.460Z,12.70
2018-05-14T23:11:18.804Z,12.70
2018-05-14T23:13:46.340Z,12.70
2018-05-14T23:16:13.862Z,12.70
2018-05-14T23:18:42.188Z,12.80
2018-05-14T23:21:09.750Z,12.80
2018-05-14T23:23:37.309Z,12.80
2018-05-14T23:26:04.854Z,12.70
2018-05-14T23:28:32.403Z,12.60
2018-05-14T23:30:59.929Z,12.60
2018-05-14T23:33:28.275Z,12.60
2018-05-14T23:35:57.772Z,12.60
2018-05-14T23:38:25.359Z,12.70
2018-05-14T23:40:52.917Z,12.70
2018-05-14T23:43:20.439Z,12.80
2018-05-14T23:45:49.947Z,12.80
2018-05-14T23:48:18.463Z,12.80
2018-05-14T23:50:48.023Z,12.80
2018-05-14T23:53:15.653Z,12.80
2018-05-14T23:55:43.205Z,12.80
2018-05-14T23:58:10.737Z,12.80
